• Join FlightAware (Why Join?)
  • Login
  • US Flag 
05:04PM EDT


 

Airport Tracker/Info


-or-


 

Live Flight TrackerFlight Track Log ✈ DAL1716 ✈ 22-Apr-2013 ✈ KDEN - KATL

Flight Track Log - Related Links

Times and Time Zones

All times are in EDT time to prevent confusion due to time zone crossing. See the DAL1716 flight status page for this flight to view local times or setup timezone preferences in your user account.

Time Position Orientation Groundspeed Altitude Reporting Facility
EDT Latitude Longitude Course Direction KTS MPH feet Rate Location/Type
11:12AM 39.8667 -104.5500 105° East 245 282 7,400  Level Denver TRACON
11:13AM 39.8333 -104.4500 113° Southeast 303 349 9,700 1,860 Climbing Denver TRACON
11:14AM 39.8158 -104.4114 121° Southeast 290 334 10,000 600 Climbing Denver Center
11:15AM 39.6618 -104.0354 113° Southeast  Level FlightAware Approximate
11:15AM 39.7792 -104.3053 114° Southeast 327 376 10,600  Level Denver Center
11:16AM 39.6098 -103.8793 113° Southeast  Level FlightAware Approximate
11:16AM 39.7319 -104.1703 114° Southeast 383 441 12,600  Level Denver Center
11:17AM 39.5609 -103.7228 105° East  Level FlightAware Approximate
11:17AM 39.6836 -104.0342 115° Southeast 414 476 14,600  Level Denver Center
11:18AM 39.5258 -103.5591 105° East  Level FlightAware Approximate
11:18AM 39.6314 -103.8936 116° Southeast 432 497 16,800  Level Denver Center
11:19AM 39.5786 -103.7442 115° Southeast 447 514 18,600 1,620 Climbing Denver Center
11:20AM 39.5383 -103.5944 109° East 452 520 20,200 1,680 Climbing Denver Center
11:21AM 39.4883 -103.4003 108° East 481 554 22,100 1,680 Climbing Denver Center
11:22AM 39.4447 -103.2300 108° East 494 568 23,700 1,500 Climbing Denver Center
11:23AM 39.3967 -103.0572 110° East 504 580 25,200 1,200 Climbing Denver Center
11:24AM 39.3500 -102.8808 109° East 512 589 26,300 1,140 Climbing Denver Center
11:25AM 39.3022 -102.7047 109° East 521 600 27,600 1,200 Climbing Denver Center
11:26AM 39.2450 -102.5028 110° East 536 617 28,800 1,200 Climbing Denver Center
11:27AM 39.1981 -102.3281 109° East 538 619 30,200 960 Climbing Denver Center
11:28AM 39.1431 -102.1217 109° East 544 626 30,900 360 Climbing Denver Center
11:29AM 39.0928 -101.9461 110° East 546 628 31,000  Climbing Denver Center
11:30AM 39.0342 -101.7406 110° East 547 629 31,000  Level Denver Center
11:31AM 38.9831 -101.5653 111° Southeast 546 628 31,000  Level Denver Center
11:32AM 38.9322 -101.3883 110° East 550 633 31,000  Level Denver Center
11:33AM 38.8731 -101.1842 110° East 547 629 31,000  Level Denver Center
11:34AM 38.8208 -101.0103 111° Southeast 546 628 31,000  Level Denver Center
11:35AM 38.7608 -100.8061 111° Southeast 546 628 31,000  Level Denver Center
11:36AM 38.7086 -100.6303 111° Southeast 550 633 31,000  Level Denver Center
11:37AM 38.6478 -100.4281 111° Southeast 546 628 31,000  Level Denver Center
11:38AM 38.5961 -100.2567 111° Southeast 540 621 31,000  Level Denver Center
11:40AM 38.5342 -100.0547 111° Southeast 544 626 31,000  Level Denver Center
11:41AM 38.4822 -99.8822 111° Southeast 544 626 31,000  Level Denver Center
11:41AM 38.4400 -99.7675 115° Southeast 542 624 31,000  Level Kansas City Center
11:42AM 38.3628 -99.5767 117° Southeast 541 623 31,000  Level Kansas City Center
11:43AM 38.2978 -99.4178 117° Southeast 539 620 31,000  Level Kansas City Center
11:44AM 38.2278 -99.2483 118° Southeast 541 623 31,000  Level Kansas City Center
11:45AM 38.1586 -99.0800 118° Southeast 540 621 31,000  Level Kansas City Center
11:46AM 38.0897 -98.9119 117° Southeast 538 619 31,000  Level Kansas City Center
11:47AM 38.0067 -98.7108 118° Southeast 538 619 31,000  Level Kansas City Center
11:48AM 37.9367 -98.5447 118° Southeast 536 617 31,000  Level Kansas City Center
11:49AM 37.8686 -98.3783 117° Southeast 535 616 31,000  Level Kansas City Center
11:51AM 37.7983 -98.2142 118° Southeast 536 617 31,000  Level Kansas City Center
11:52AM 37.7147 -98.0197 118° Southeast 540 621 31,000  Level Kansas City Center
11:53AM 37.6436 -97.8547 119° Southeast 537 618 31,000  Level Kansas City Center
11:54AM 37.5747 -97.6903 118° Southeast 538 619 31,000  Level Kansas City Center
11:55AM 37.5044 -97.5283 119° Southeast 532 612 31,000  Level Kansas City Center
11:56AM 37.4344 -97.3633 118° Southeast 535 616 31,000  Level Kansas City Center
11:57AM 37.3633 -97.2033 119° Southeast 527 606 31,000  Level Kansas City Center
11:58AM 37.2769 -97.0114 119° Southeast 527 606 31,000  Level Kansas City Center
11:59AM 37.2061 -96.8506 119° Southeast 528 608 31,000  Level Kansas City Center
12:00PM 37.1353 -96.6911 119° Southeast 527 606 31,000  Level Kansas City Center
12:01PM 37.0556 -96.5089 119° Southeast 521 600 31,000  Level Kansas City Center
12:02PM 36.9839 -96.3494 119° Southeast 522 601 31,000  Level Kansas City Center
12:03PM 36.9131 -96.1903 119° Southeast 522 601 31,000  Level Kansas City Center
12:04PM 36.8417 -96.0314 119° Southeast 521 600 31,000  Level Kansas City Center
12:06PM 36.7364 -95.6894 111° Southeast 527 606 31,000  Level Kansas City Center
12:07PM 36.6844 -95.5189 111° Southeast 522 601 31,000  Level Kansas City Center
12:08PM 36.6314 -95.3461 111° Southeast 523 602 31,000  Level Kansas City Center
12:09PM 36.5731 -95.1589 111° Southeast 522 601 31,000  Level Kansas City Center
12:10PM 36.5153 -94.9700 111° Southeast 521 600 31,000  Level Kansas City Center
12:11PM 36.4619 -94.8011 111° Southeast 522 601 31,000  Level Kansas City Center
12:12PM 36.4092 -94.6331 111° Southeast 522 601 31,000  Level Kansas City Center
12:13PM 36.3561 -94.4639 111° Southeast 522 601 31,000  Level Kansas City Center
12:14PM 36.3008 -94.2956 112° Southeast 525 604 31,000  Level Kansas City Center
12:15PM 36.2403 -94.0983 111° Southeast 524 603 31,000  Level Memphis Center
12:16PM 36.1911 -93.9189 109° East 514 592 31,000  Level Memphis Center
12:17PM 36.1417 -93.7469 110° East 514 592 31,000  Level Memphis Center
12:18PM 36.0942 -93.5833 110° East 514 592 31,000  Level Memphis Center
12:19PM 36.0461 -93.4119 109° East 514 592 31,000  Level Memphis Center
12:20PM 36.0000 -93.2458 109° East 514 592 31,000  Level Memphis Center
12:21PM 35.9517 -93.0803 110° East 514 592 31,000  Level Memphis Center
12:22PM 35.9033 -92.9094 109° East 514 592 31,000  Level Memphis Center
12:23PM 35.8564 -92.7442 109° East 514 592 31,000  Level Memphis Center
12:24PM 35.8075 -92.5764 110° East 514 592 31,000  Level Memphis Center
12:25PM 35.7603 -92.4086 109° East 514 592 31,000  Level Memphis Center
12:26PM 35.7106 -92.2439 110° East 514 592 31,000  Level Memphis Center
12:27PM 35.6608 -92.0792 110° East 514 592 31,000  Level Memphis Center
12:28PM 35.6111 -91.9122 110° East 514 592 31,000  Level Memphis Center
12:29PM 35.5650 -91.7506 109° East 514 592 31,000  Level Memphis Center
12:30PM 35.5125 -91.5839 111° Southeast 514 592 31,000  Level Memphis Center
12:31PM 35.4658 -91.4225 110° East 514 592 31,000  Level Memphis Center
12:32PM 35.4172 -91.2589 110° East 509 586 31,000 -600 Level Memphis Center
12:33PM 35.3681 -91.1006 111° Southeast 509 586 29,900 -960 Descending Memphis Center
12:34PM 35.3231 -90.9603 111° Southeast 501 577 29,100 -480 Descending Memphis Center
12:35PM 35.2736 -90.8022 111° Southeast 491 565 29,000 -60 Descending Memphis Center
12:36PM 35.2197 -90.6289 111° Southeast 491 565 29,000  Level Memphis Center
12:37PM 35.1700 -90.4739 111° Southeast 492 566 29,000  Level Memphis Center
12:38PM 35.1200 -90.3139 111° Southeast 497 572 29,000  Level Memphis Center
12:39PM 35.0719 -90.1517 110° East 497 572 29,000  Level Memphis Center
12:40PM 35.0236 -89.9944 111° Southeast 491 565 29,000  Level Memphis Center
12:41PM 34.9978 -89.8247 100° East 491 565 29,000  Level Memphis Center
12:42PM 34.9719 -89.6653 101° East 512 589 29,000  Level Memphis Center
12:43PM 34.9439 -89.4931 101° East 522 601 29,000  Level Memphis Center
12:44PM 34.9194 -89.3211 100° East 522 601 29,000  Level Memphis Center
12:45PM 34.8908 -89.1394 101° East 517 595 29,000  Level Memphis Center
12:46PM 34.8639 -88.9700 101° East 511 588 29,000  Level Memphis Center
12:47PM 34.8389 -88.8011 100° East 505 581 29,000  Level Memphis Center
12:48PM 34.8117 -88.6347 101° East 505 581 29,000  Level Memphis Center
12:49PM 34.7889 -88.4908 101° East 493 567 29,000  Level Memphis Center
12:50PM 34.7633 -88.3247 101° East 485 558 29,000  Level Memphis Center
12:51PM 34.7347 -88.1308 100° East 511 588 29,000  Level Memphis Center
12:52PM 34.7067 -87.9647 102° East 517 595 29,000  Level Memphis Center
12:53PM 34.6761 -87.7964 102° East 510 587 29,000  Level Memphis Center
12:54PM 34.6564 -87.6481 99° East 503 579 29,000  Level Memphis Center
12:55PM 34.6231 -87.4675 103° East 498 573 29,000  Level Memphis Center
12:56PM 34.6072 -87.3625 100° East 508 585 29,000  Level Atlanta Center
12:57PM 34.5739 -87.1972 104° East 519 597 29,000  Level Atlanta Center
12:58PM 34.5428 -87.0297 103° East 504 580 29,000  Level Atlanta Center
12:59PM 34.5111 -86.8622 103° East 504 580 29,000 -120 Level Atlanta Center
01:00PM 34.4814 -86.6997 102° East 497 572 28,800 -600 Descending Atlanta Center
01:01PM 34.4472 -86.5350 104° East 497 572 27,900 -960 Descending Atlanta Center
01:02PM 34.4150 -86.3706 103° East 491 565 26,900 -780 Descending Atlanta Center
01:03PM 34.3825 -86.2058 103° East 491 565 26,400 -600 Descending Atlanta Center
01:04PM 34.3519 -86.0417 103° East 491 565 25,700 -780 Descending Atlanta Center
01:05PM 34.3169 -85.8772 104° East 491 565 24,900 -1,380 Descending Atlanta Center
01:06PM 34.2900 -85.7233 102° East 475 547 23,000 -2,340 Descending Atlanta Center
01:07PM 34.2564 -85.5744 105° East 461 531 20,300 -2,640 Descending Atlanta Center
01:08PM 34.2289 -85.4308 103° East 446 513 17,800 -2,700 Descending Atlanta Center
01:09PM 34.1992 -85.2919 104° East 433 498 15,000 -2,400 Descending Atlanta Center
01:10PM 34.1731 -85.1611 104° East 408 470 13,100 -1,020 Descending Atlanta Center
01:11PM 34.1156 -85.0550 123° Southeast 359 413 13,000 -180 Descending Atlanta Center
01:12PM 34.0494 -84.9864 139° Southeast 325 374 12,800 -900 Descending Atlanta Center
01:13PM 33.9683 -84.9606 165° South 295 339 11,200 -1,440 Descending Atlanta Center
01:14PM 33.8911 -84.9322 163° South 290 334 10,000 -600 Descending Atlanta Center
01:15PM 33.8119 -84.9139 169° South 290 334 10,000 -240 Level Atlanta Center
01:16PM 33.7328 -84.9056 175° South 290 334 9,600 -1,080 Descending Atlanta Center
01:17PM 33.6536 -84.8972 175° South 290 334 7,900 -1,320 Descending Atlanta Center
01:18PM 33.6228 -84.8297 119° Southeast 244 281 7,000 -960 Descending Atlanta Center
01:19PM 33.6333 -84.7333 82° East 273 314 6,100 -1,020 Descending Atlanta TRACON